createdAt,value
2023-04-16T00:00:20.153Z,101201.09
2023-04-16T00:02:50.055Z,101190.47
2023-04-16T00:05:22.565Z,101219.06
2023-04-16T00:07:53.029Z,101212.16
2023-04-16T00:10:22.818Z,101213.03
2023-04-16T00:12:52.799Z,101219.75
2023-04-16T00:15:22.690Z,101207.06
2023-04-16T00:17:52.830Z,101194.13
2023-04-16T00:20:25.499Z,101175.84
2023-04-16T00:22:55.307Z,101222.97
2023-04-16T00:25:25.195Z,101213.25
2023-04-16T00:27:55.152Z,101222.56
2023-04-16T00:30:25.638Z,101223.34
2023-04-16T00:32:55.530Z,101206.66
2023-04-16T00:35:27.926Z,101217.09
2023-04-16T00:37:57.679Z,101180.56
2023-04-16T00:40:30.325Z,101223.63
2023-04-16T00:43:00.060Z,101226.38
2023-04-16T00:45:30.155Z,101228.66
2023-04-16T00:48:01.264Z,101238.00
2023-04-16T00:50:33.643Z,101218.03
2023-04-16T00:53:04.701Z,101215.38
2023-04-16T00:55:34.589Z,101231.53
2023-04-16T00:58:04.353Z,101225.56
2023-04-16T01:00:34.151Z,101234.03
2023-04-16T01:03:04.306Z,101242.66
2023-04-16T01:05:36.780Z,101226.13
2023-04-16T01:08:06.754Z,101237.19
2023-04-16T01:10:36.478Z,101234.47
2023-04-16T01:13:06.217Z,101250.88
2023-04-16T01:15:36.146Z,101256.72
2023-04-16T01:18:06.324Z,101249.09
2023-04-16T01:20:40.123Z,101255.97
2023-04-16T01:23:10.075Z,101260.88
2023-04-16T01:25:39.960Z,101254.06
2023-04-16T01:28:10.864Z,101269.53
2023-04-16T01:30:40.639Z,101260.69
2023-04-16T01:33:30.678Z,101273.44
2023-04-16T01:36:03.033Z,101281.97
2023-04-16T01:38:32.820Z,101287.13
2023-04-16T01:41:02.572Z,101282.88
2023-04-16T01:43:32.354Z,101286.31
2023-04-16T01:46:16.570Z,101290.53
2023-04-16T01:48:46.390Z,101288.75
2023-04-16T01:51:18.736Z,101286.19
2023-04-16T01:53:48.544Z,101281.00
2023-04-16T01:56:18.276Z,101292.41
2023-04-16T01:58:48.315Z,101283.78
2023-04-16T02:01:20.039Z,101284.72
2023-04-16T02:03:50.802Z,101281.22
2023-04-16T02:06:23.285Z,101269.28
2023-04-16T02:08:53.231Z,101286.47
2023-04-16T02:11:23.998Z,101267.00
2023-04-16T02:13:54.172Z,101286.00
2023-04-16T02:16:24.253Z,101289.94
2023-04-16T02:19:04.475Z,101281.97
2023-04-16T02:21:40.045Z,101293.81
2023-04-16T02:24:10.074Z,101252.00
2023-04-16T02:26:40.112Z,101273.53
2023-04-16T02:29:16.696Z,101289.84
2023-04-16T02:31:52.965Z,101277.97
2023-04-16T02:34:23.211Z,101288.38
2023-04-16T02:36:55.863Z,101288.72
2023-04-16T02:39:25.645Z,101291.19
2023-04-16T02:41:56.400Z,101286.97
2023-04-16T02:44:26.338Z,101277.28
2023-04-16T02:46:56.094Z,101297.97
2023-04-16T02:49:26.052Z,101297.78
2023-04-16T02:51:58.342Z,101303.22
2023-04-16T02:54:28.216Z,101299.66
2023-04-16T02:56:57.975Z,101298.59
2023-04-16T02:59:27.719Z,101306.13
2023-04-16T03:01:57.550Z,101308.56
2023-04-16T03:04:27.524Z,101312.03
2023-04-16T03:06:59.904Z,101300.91
2023-04-16T03:09:29.645Z,101312.09
2023-04-16T03:11:59.683Z,101304.34
2023-04-16T03:14:29.377Z,101293.13
2023-04-16T03:16:59.217Z,101299.09
2023-04-16T03:19:29.056Z,101322.31
2023-04-16T03:22:01.436Z,101317.75
2023-04-16T03:24:31.220Z,101317.28
2023-04-16T03:27:02.762Z,101309.19
2023-04-16T03:29:32.617Z,101305.50
2023-04-16T03:32:02.433Z,101317.97
2023-04-16T03:34:32.185Z,101321.16
2023-04-16T03:37:06.270Z,101320.94
2023-04-16T03:39:36.640Z,101306.22
2023-04-16T03:42:06.715Z,101346.84
2023-04-16T03:44:37.441Z,101339.91
2023-04-16T03:47:07.171Z,101333.91
2023-04-16T03:49:37.882Z,101348.78
2023-04-16T03:52:11.406Z,101349.59
2023-04-16T03:54:41.227Z,101349.59
2023-04-16T03:57:22.349Z,101350.53
2023-04-16T03:59:52.076Z,101345.53
2023-04-16T04:02:22.357Z,101329.66
2023-04-16T04:04:52.235Z,101353.16
2023-04-16T04:07:24.609Z,101351.72
2023-04-16T04:09:55.425Z,101349.81
2023-04-16T04:12:25.206Z,101334.94
2023-04-16T04:14:55.022Z,101353.75
2023-04-16T04:17:24.912Z,101361.88
2023-04-16T04:22:32.789Z,101365.81
2023-04-16T04:25:02.634Z,101340.97
2023-04-16T04:27:35.069Z,101371.38
2023-04-16T04:30:06.479Z,101366.09
2023-04-16T04:32:36.912Z,101372.31
2023-04-16T04:35:07.091Z,101339.22
2023-04-16T04:37:39.586Z,101374.00
2023-04-16T04:40:16.750Z,101386.09
2023-04-16T04:42:46.587Z,101384.19
2023-04-16T04:45:16.471Z,101334.69
2023-04-16T04:47:46.222Z,101376.06
2023-04-16T04:50:16.021Z,101385.66
2023-04-16T04:52:48.348Z,101393.22
2023-04-16T04:55:18.105Z,101400.78
2023-04-16T04:57:47.997Z,101385.13
2023-04-16T05:00:17.743Z,101395.44
2023-04-16T05:02:55.145Z,101404.28
2023-04-16T05:05:25.280Z,101392.69
2023-04-16T05:07:57.602Z,101410.00
2023-04-16T05:10:27.363Z,101411.38
2023-04-16T05:12:57.297Z,101362.69
2023-04-16T05:15:27.054Z,101416.38
2023-04-16T05:17:56.757Z,101408.41
2023-04-16T05:20:26.897Z,101411.69
2023-04-16T05:22:59.198Z,101419.31
2023-04-16T05:25:28.926Z,101423.53
2023-04-16T05:27:58.617Z,101438.75
2023-04-16T05:30:28.399Z,101421.09
2023-04-16T05:32:58.159Z,101437.03
2023-04-16T05:35:27.930Z,101446.38
2023-04-16T05:38:00.299Z,101425.84
2023-04-16T05:40:30.032Z,101436.03
2023-04-16T05:42:59.786Z,101457.41
2023-04-16T05:45:29.622Z,101444.91
2023-04-16T05:47:59.402Z,101447.78
2023-04-16T05:50:29.195Z,101448.28
2023-04-16T05:53:01.532Z,101456.28
2023-04-16T05:55:31.301Z,101448.47
2023-04-16T05:58:01.305Z,101466.28
2023-04-16T06:00:31.077Z,101466.31
2023-04-16T06:03:01.202Z,101464.72
2023-04-16T06:05:31.961Z,101439.03
2023-04-16T06:08:04.408Z,101469.09
2023-04-16T06:10:34.233Z,101468.13
2023-04-16T06:13:03.958Z,101470.66
2023-04-16T06:15:33.693Z,101467.50
2023-04-16T06:18:03.518Z,101440.78
2023-04-16T06:20:33.572Z,101440.63
2023-04-16T06:23:05.904Z,101484.53
2023-04-16T06:25:35.665Z,101481.84
2023-04-16T06:28:05.426Z,101473.66
2023-04-16T06:30:35.303Z,101461.84
2023-04-16T06:33:05.124Z,101480.47
2023-04-16T06:35:34.857Z,101480.25
2023-04-16T06:38:07.157Z,101481.22
2023-04-16T06:40:37.663Z,101464.75
2023-04-16T06:43:07.559Z,101481.78
2023-04-16T06:45:37.553Z,101468.88
2023-04-16T06:48:08.272Z,101477.13
2023-04-16T06:50:38.014Z,101466.47
2023-04-16T06:53:10.780Z,101466.16
2023-04-16T06:55:40.535Z,101481.44
2023-04-16T06:58:10.367Z,101485.19
2023-04-16T07:00:40.169Z,101464.91
2023-04-16T07:03:10.061Z,101489.84
2023-04-16T07:05:40.256Z,101490.22
2023-04-16T07:08:13.066Z,101494.78
2023-04-16T07:10:42.826Z,101468.25
2023-04-16T07:13:12.846Z,101501.09
2023-04-16T07:15:42.571Z,101504.44
2023-04-16T07:18:12.308Z,101494.47
2023-04-16T07:20:43.128Z,101504.69
2023-04-16T07:23:15.468Z,101479.69
2023-04-16T07:25:46.001Z,101502.94
2023-04-16T07:28:16.778Z,101487.75
2023-04-16T07:30:46.543Z,101491.25
2023-04-16T07:33:16.305Z,101448.66
2023-04-16T07:35:46.193Z,101488.47
2023-04-16T07:38:18.808Z,101468.53
2023-04-16T07:40:48.627Z,101515.22
2023-04-16T07:43:18.576Z,101496.97
2023-04-16T07:45:48.632Z,101506.84
2023-04-16T07:48:18.369Z,101500.44
2023-04-16T07:50:48.138Z,101514.59
2023-04-16T07:53:20.600Z,101520.72
2023-04-16T07:55:50.308Z,101499.16
2023-04-16T07:58:20.105Z,101521.19
2023-04-16T08:00:51.075Z,101500.53
2023-04-16T08:03:21.065Z,101519.59
2023-04-16T08:05:50.938Z,101506.97
2023-04-16T08:08:23.264Z,101523.00
2023-04-16T08:10:55.966Z,101528.00
2023-04-16T08:13:25.822Z,101519.63
2023-04-16T08:15:55.615Z,101545.47
2023-04-16T08:18:25.765Z,101518.81
2023-04-16T08:20:55.547Z,101526.81
2023-04-16T08:23:27.864Z,101544.72
2023-04-16T08:25:57.754Z,101549.66
2023-04-16T08:28:27.469Z,101549.38
2023-04-16T08:30:57.260Z,101533.44
2023-04-16T08:33:27.027Z,101558.06
2023-04-16T08:35:56.795Z,101535.50
2023-04-16T08:38:29.227Z,101568.03
2023-04-16T08:41:01.550Z,101568.38
2023-04-16T08:43:34.619Z,101557.41
2023-04-16T08:46:06.335Z,101576.88
2023-04-16T08:48:37.237Z,101537.88
2023-04-16T08:51:12.282Z,101582.91
2023-04-16T08:53:54.820Z,101520.50
2023-04-16T08:56:27.507Z,101588.88
2023-04-16T08:58:58.593Z,101581.28
2023-04-16T09:01:29.573Z,101587.66
2023-04-16T09:04:01.734Z,101575.69
2023-04-16T09:06:32.252Z,101585.06
2023-04-16T09:09:05.603Z,101588.78
2023-04-16T09:11:35.684Z,101594.47
2023-04-16T09:14:06.433Z,101595.16
2023-04-16T09:16:37.087Z,101580.50
2023-04-16T09:19:07.836Z,101602.84
2023-04-16T09:21:38.336Z,101577.84
2023-04-16T09:24:11.313Z,101597.97
2023-04-16T09:26:41.588Z,101581.94
2023-04-16T09:29:11.589Z,101590.63
2023-04-16T09:31:41.707Z,101602.34
2023-04-16T09:34:12.242Z,101604.66
2023-04-16T09:36:42.017Z,101591.78
2023-04-16T09:39:22.172Z,101614.16
2023-04-16T09:41:52.711Z,101601.25
2023-04-16T09:44:22.513Z,101608.41
2023-04-16T09:46:52.262Z,101616.88
2023-04-16T09:49:21.993Z,101603.16
2023-04-16T09:51:54.764Z,101613.78
2023-04-16T09:54:28.923Z,101613.00
2023-04-16T09:56:59.961Z,101608.41
2023-04-16T09:59:34.225Z,101605.91
2023-04-16T10:02:15.291Z,101600.81
2023-04-16T10:04:52.919Z,101593.53
2023-04-16T10:07:23.545Z,101615.13
2023-04-16T10:09:56.091Z,101632.50
2023-04-16T10:12:25.858Z,101628.13
2023-04-16T10:14:55.756Z,101612.94
2023-04-16T10:17:26.190Z,101634.66
2023-04-16T10:19:57.502Z,101585.88
2023-04-16T10:22:27.313Z,101624.19
2023-04-16T10:25:00.706Z,101636.13
2023-04-16T10:27:31.259Z,101635.78
2023-04-16T10:30:01.194Z,101644.34
2023-04-16T10:32:31.836Z,101642.31
2023-04-16T10:35:01.672Z,101627.28
2023-04-16T10:37:34.960Z,101646.13
2023-04-16T10:40:25.343Z,101631.44
2023-04-16T10:42:59.279Z,101634.44
2023-04-16T10:45:39.804Z,101646.22
2023-04-16T10:48:15.206Z,101648.69
2023-04-16T10:50:45.800Z,101647.84
2023-04-16T10:53:24.216Z,101652.28
2023-04-16T10:56:17.042Z,101651.66
2023-04-16T10:58:49.687Z,101635.66
2023-04-16T11:01:20.305Z,101642.50
2023-04-16T11:03:52.545Z,101651.25
2023-04-16T11:06:28.942Z,101660.75
2023-04-16T11:09:02.264Z,101624.03
2023-04-16T11:11:42.451Z,101652.66
2023-04-16T11:14:15.231Z,101630.38
2023-04-16T11:16:47.311Z,101656.81
2023-04-16T11:19:20.702Z,101658.69
2023-04-16T11:21:51.612Z,101658.69
2023-04-16T11:24:22.789Z,101657.75
2023-04-16T11:26:57.927Z,101669.19
2023-04-16T11:29:28.853Z,101670.78
2023-04-16T11:31:59.591Z,101655.03
2023-04-16T11:34:30.558Z,101627.50
2023-04-16T11:37:01.286Z,101652.91
2023-04-16T11:39:32.247Z,101648.53
2023-04-16T11:42:07.934Z,101662.13
2023-04-16T11:44:38.620Z,101654.47
2023-04-16T11:47:09.449Z,101663.13
2023-04-16T11:49:42.826Z,101662.03
2023-04-16T11:52:13.542Z,101668.31
2023-04-16T11:54:44.508Z,101656.06
2023-04-16T11:57:19.786Z,101665.03
2023-04-16T12:00:01.553Z,101670.28
2023-04-16T12:02:49.652Z,101653.94
2023-04-16T12:05:31.504Z,101659.47
2023-04-16T12:08:04.192Z,101661.09
2023-04-16T12:10:38.087Z,101664.78
2023-04-16T12:13:19.251Z,101680.84
2023-04-16T12:15:53.746Z,101664.72
2023-04-16T12:18:27.205Z,101661.34
2023-04-16T12:20:57.999Z,101669.50
2023-04-16T12:23:30.136Z,101685.91
2023-04-16T12:26:03.087Z,101665.31
2023-04-16T12:28:49.334Z,101680.66
2023-04-16T12:31:20.737Z,101637.13
2023-04-16T12:34:05.297Z,101673.44
2023-04-16T12:36:37.435Z,101653.03
2023-04-16T12:39:07.978Z,101677.44
2023-04-16T12:41:41.235Z,101675.81
2023-04-16T12:44:18.819Z,101641.88
2023-04-16T12:46:50.070Z,101677.34
2023-04-16T12:49:20.807Z,101677.44
2023-04-16T12:51:52.867Z,101674.50
2023-04-16T12:54:24.806Z,101665.09
2023-04-16T12:56:55.415Z,101670.41
2023-04-16T12:59:28.584Z,101676.38
2023-04-16T13:01:59.289Z,101676.56
2023-04-16T13:04:31.353Z,101671.09
2023-04-16T13:07:01.419Z,101669.66
2023-04-16T13:09:31.234Z,101657.78
2023-04-16T13:12:01.016Z,101669.84
2023-04-16T13:14:33.304Z,101650.75
2023-04-16T13:17:04.173Z,101671.41
2023-04-16T13:19:34.141Z,101670.25
2023-04-16T13:22:06.120Z,101666.41
2023-04-16T13:24:36.056Z,101644.22
2023-04-16T13:27:06.020Z,101666.06
2023-04-16T13:29:38.848Z,101661.38
2023-04-16T13:32:09.876Z,101630.91
2023-04-16T13:34:39.958Z,101642.38
2023-04-16T13:37:09.747Z,101658.84
2023-04-16T13:39:39.517Z,101649.28
2023-04-16T13:42:09.431Z,101656.28
2023-04-16T13:44:41.748Z,101665.22
2023-04-16T13:47:11.857Z,101635.94
2023-04-16T13:49:41.638Z,101656.72
2023-04-16T13:52:11.356Z,101644.56
2023-04-16T13:54:43.874Z,101621.91
2023-04-16T13:57:22.919Z,101637.41
2023-04-16T13:59:55.354Z,101642.69
2023-04-16T14:02:26.310Z,101656.28
2023-04-16T14:04:56.477Z,101661.66
2023-04-16T14:07:27.392Z,101639.31
2023-04-16T14:09:57.254Z,101648.97
2023-04-16T14:12:27.040Z,101632.88
2023-04-16T14:14:59.473Z,101657.50
2023-04-16T14:17:29.225Z,101662.41
2023-04-16T14:19:59.069Z,101641.81
2023-04-16T14:22:28.866Z,101661.84
2023-04-16T14:24:59.108Z,101635.97
2023-04-16T14:27:28.925Z,101620.25
2023-04-16T14:30:01.603Z,101651.53
2023-04-16T14:32:31.449Z,101630.06
2023-04-16T14:35:01.276Z,101643.78
2023-04-16T14:37:31.267Z,101655.28
2023-04-16T14:40:01.016Z,101651.59
2023-04-16T14:42:30.760Z,101647.25
2023-04-16T14:45:03.097Z,101635.94
2023-04-16T14:47:32.886Z,101648.75
2023-04-16T14:50:02.691Z,101656.44
2023-04-16T14:52:33.903Z,101623.34
2023-04-16T14:55:03.663Z,101659.75
2023-04-16T14:57:33.573Z,101660.75
2023-04-16T15:00:09.208Z,101667.16
2023-04-16T15:02:39.559Z,101637.13
2023-04-16T15:05:10.788Z,101659.81
2023-04-16T15:07:40.848Z,101626.88
2023-04-16T15:10:12.826Z,101625.25
2023-04-16T15:12:43.054Z,101612.88
2023-04-16T15:15:16.006Z,101651.91
2023-04-16T15:17:46.360Z,101659.03
2023-04-16T15:20:16.396Z,101660.13
2023-04-16T15:22:46.331Z,101648.00
2023-04-16T15:25:16.080Z,101664.81
2023-04-16T15:27:45.827Z,101672.66
2023-04-16T15:30:18.539Z,101662.00
2023-04-16T15:32:48.410Z,101630.84
2023-04-16T15:35:18.133Z,101670.81
2023-04-16T15:37:47.896Z,101660.41
2023-04-16T15:40:19.051Z,101644.69
2023-04-16T15:42:48.823Z,101654.59
2023-04-16T15:45:21.404Z,101669.41
2023-04-16T15:47:51.570Z,101656.56
2023-04-16T15:50:22.041Z,101662.41
2023-04-16T15:52:52.006Z,101666.72
2023-04-16T15:55:22.088Z,101669.63
2023-04-16T15:57:52.488Z,101677.16
2023-04-16T16:00:24.897Z,101675.53
2023-04-16T16:02:54.731Z,101676.13
2023-04-16T16:05:24.749Z,101676.72
2023-04-16T16:07:54.681Z,101670.72
2023-04-16T16:10:24.424Z,101674.09
2023-04-16T16:12:54.192Z,101686.03
2023-04-16T16:15:26.514Z,101681.84
2023-04-16T16:17:58.392Z,101672.88
2023-04-16T16:20:28.777Z,101680.41
2023-04-16T16:22:58.514Z,101675.63
2023-04-16T16:25:28.250Z,101693.63
2023-04-16T16:27:58.972Z,101678.94
2023-04-16T16:30:32.990Z,101691.13
2023-04-16T16:33:02.883Z,101680.53
2023-04-16T16:35:32.728Z,101678.06
2023-04-16T16:38:02.455Z,101682.34
2023-04-16T16:40:33.202Z,101702.13
2023-04-16T16:43:03.019Z,101696.13
2023-04-16T16:45:35.489Z,101690.81
2023-04-16T16:48:06.144Z,101707.78
2023-04-16T16:50:35.949Z,101706.72
2023-04-16T16:53:06.110Z,101708.50
2023-04-16T16:55:35.924Z,101703.50
2023-04-16T16:58:05.916Z,101716.44
2023-04-16T17:00:38.283Z,101711.16
2023-04-16T17:03:09.019Z,101720.53
2023-04-16T17:05:39.406Z,101698.75
2023-04-16T17:08:09.539Z,101684.72
2023-04-16T17:10:39.301Z,101690.72
2023-04-16T17:13:09.058Z,101720.03
2023-04-16T17:15:41.396Z,101725.09
2023-04-16T17:18:11.180Z,101710.25
2023-04-16T17:20:41.143Z,101691.25
2023-04-16T17:23:11.346Z,101721.50
2023-04-16T17:25:41.209Z,101712.81
2023-04-16T17:28:11.035Z,101718.91
2023-04-16T17:30:43.357Z,101717.00
2023-04-16T17:33:13.201Z,101736.72
2023-04-16T17:35:43.256Z,101739.94
2023-04-16T17:38:13.030Z,101733.84
2023-04-16T17:40:42.847Z,101732.09
2023-04-16T17:43:12.610Z,101710.44
2023-04-16T17:45:44.971Z,101731.41
2023-04-16T17:48:14.733Z,101738.25
2023-04-16T17:50:44.491Z,101731.00
2023-04-16T17:53:14.585Z,101746.22
2023-04-16T17:55:54.559Z,101747.84
2023-04-16T17:58:26.579Z,101744.19
2023-04-16T18:00:58.894Z,101754.63
2023-04-16T18:03:28.847Z,101752.00
2023-04-16T18:05:58.676Z,101739.47
2023-04-16T18:08:29.080Z,101758.38
2023-04-16T18:10:58.965Z,101713.38
2023-04-16T18:13:28.793Z,101766.88
2023-04-16T18:16:01.239Z,101772.75
2023-04-16T18:18:31.100Z,101777.00
2023-04-16T18:21:00.841Z,101736.94
2023-04-16T18:23:30.643Z,101768.06
2023-04-16T18:26:00.604Z,101775.94
2023-04-16T18:28:30.458Z,101775.16
2023-04-16T18:31:05.701Z,101770.84
2023-04-16T18:33:53.373Z,101754.28
2023-04-16T18:36:26.162Z,101767.94
2023-04-16T18:41:29.192Z,101790.09
2023-04-16T18:43:59.201Z,101784.75
2023-04-16T18:46:31.639Z,101789.19
2023-04-16T18:49:01.785Z,101768.38
2023-04-16T18:51:31.835Z,101776.06
2023-04-16T18:54:02.304Z,101805.13
2023-04-16T18:56:32.378Z,101797.38
2023-04-16T18:59:02.277Z,101808.41
2023-04-16T19:01:34.681Z,101806.81
2023-04-16T19:04:04.428Z,101801.13
2023-04-16T19:06:34.202Z,101797.69
2023-04-16T19:09:03.910Z,101779.22
2023-04-16T19:11:33.648Z,101811.56
2023-04-16T19:14:05.533Z,101811.19
2023-04-16T19:16:41.877Z,101826.50
2023-04-16T19:19:11.942Z,101824.56
2023-04-16T19:21:41.932Z,101797.44
2023-04-16T19:24:11.883Z,101809.72
2023-04-16T19:26:41.634Z,101827.00
2023-04-16T19:29:11.930Z,101832.16
2023-04-16T19:31:46.444Z,101829.56
2023-04-16T19:34:16.932Z,101819.63
2023-04-16T19:36:47.274Z,101828.13
2023-04-16T19:39:16.995Z,101824.50
2023-04-16T19:41:46.722Z,101791.28
2023-04-16T19:44:16.470Z,101828.91
2023-04-16T19:46:48.816Z,101835.78
2023-04-16T19:49:18.788Z,101829.59
2023-04-16T19:51:49.015Z,101833.78
2023-04-16T19:54:18.746Z,101831.47
2023-04-16T19:56:49.074Z,101828.91
2023-04-16T19:59:18.831Z,101816.59
2023-04-16T20:01:51.392Z,101832.78
2023-04-16T20:04:21.178Z,101849.09
2023-04-16T20:06:50.945Z,101848.19
2023-04-16T20:09:21.018Z,101854.66
2023-04-16T20:11:51.698Z,101840.63
2023-04-16T20:14:21.565Z,101853.06
2023-04-16T20:16:53.898Z,101852.81
2023-04-16T20:19:31.497Z,101844.09
2023-04-16T20:22:01.281Z,101853.22
2023-04-16T20:24:31.274Z,101852.84
2023-04-16T20:27:01.868Z,101850.75
2023-04-16T20:29:31.784Z,101848.84
2023-04-16T20:32:04.183Z,101847.72
2023-04-16T20:34:34.004Z,101825.59
2023-04-16T20:37:03.784Z,101863.59
2023-04-16T20:39:34.381Z,101850.66
2023-04-16T20:42:04.462Z,101846.06
2023-04-16T20:44:40.589Z,101872.88
2023-04-16T20:47:15.459Z,101868.94
2023-04-16T20:49:46.510Z,101871.25
2023-04-16T20:52:16.757Z,101862.63
2023-04-16T20:54:47.363Z,101868.72
2023-04-16T20:57:17.205Z,101846.28
2023-04-16T20:59:46.961Z,101844.69
2023-04-16T21:02:20.294Z,101865.69
2023-04-16T21:04:50.386Z,101864.75
2023-04-16T21:07:20.456Z,101861.41
2023-04-16T21:09:51.249Z,101867.56
2023-04-16T21:12:21.251Z,101838.53
2023-04-16T21:14:51.096Z,101874.69
2023-04-16T21:17:23.497Z,101865.19
2023-04-16T21:19:53.273Z,101843.16
2023-04-16T21:22:23.116Z,101873.34
2023-04-16T21:24:52.921Z,101871.16
2023-04-16T21:27:22.818Z,101869.53
2023-04-16T21:29:52.779Z,101862.97
2023-04-16T21:32:25.181Z,101874.28
2023-04-16T21:34:54.965Z,101876.59
2023-04-16T21:37:24.766Z,101834.19
2023-04-16T21:39:54.537Z,101868.22
2023-04-16T21:42:24.257Z,101864.53
2023-04-16T21:44:54.052Z,101875.06
2023-04-16T21:47:26.755Z,101888.03
2023-04-16T21:49:56.492Z,101882.00
2023-04-16T21:52:26.277Z,101885.53
2023-04-16T21:54:56.022Z,101877.81
2023-04-16T21:57:25.836Z,101882.09
2023-04-16T21:59:55.594Z,101891.53
2023-04-16T22:02:28.816Z,101861.41
2023-04-16T22:04:58.739Z,101880.81
2023-04-16T22:07:29.124Z,101875.53
2023-04-16T22:09:59.213Z,101885.19
2023-04-16T22:12:29.056Z,101873.13
2023-04-16T22:15:02.731Z,101864.28
2023-04-16T22:17:36.064Z,101879.22
2023-04-16T22:20:09.506Z,101875.47
2023-04-16T22:22:39.279Z,101865.91
2023-04-16T22:25:09.999Z,101874.75
2023-04-16T22:27:40.171Z,101867.88
2023-04-16T22:30:11.383Z,101882.16
2023-04-16T22:32:43.814Z,101877.81
2023-04-16T22:35:13.768Z,101871.25
2023-04-16T22:37:43.620Z,101874.97
2023-04-16T22:40:13.735Z,101843.53
2023-04-16T22:42:43.565Z,101880.16
2023-04-16T22:45:14.451Z,101880.19
2023-04-16T22:47:46.833Z,101882.50
2023-04-16T22:50:16.766Z,101885.59
2023-04-16T22:52:46.525Z,101888.75
2023-04-16T22:55:16.319Z,101874.06
2023-04-16T22:57:46.053Z,101882.50
2023-04-16T23:00:17.962Z,101880.50
2023-04-16T23:02:50.524Z,101882.59
2023-04-16T23:05:20.445Z,101871.00
2023-04-16T23:07:50.273Z,101877.84
2023-04-16T23:10:20.434Z,101885.69
2023-04-16T23:12:50.221Z,101882.38
2023-04-16T23:15:20.281Z,101875.41
2023-04-16T23:17:52.854Z,101895.72
2023-04-16T23:20:22.703Z,101889.47
2023-04-16T23:22:52.932Z,101877.03
2023-04-16T23:25:23.762Z,101879.75
2023-04-16T23:27:53.603Z,101887.84
2023-04-16T23:30:23.490Z,101886.06
2023-04-16T23:32:55.852Z,101886.84
2023-04-16T23:35:25.595Z,101884.41
2023-04-16T23:37:55.470Z,101876.97
2023-04-16T23:40:25.855Z,101884.91
2023-04-16T23:42:55.609Z,101895.25
2023-04-16T23:45:25.420Z,101891.13
2023-04-16T23:47:57.881Z,101887.97
2023-04-16T23:50:27.764Z,101893.63
2023-04-16T23:52:57.518Z,101886.56
2023-04-16T23:55:27.641Z,101893.81
2023-04-16T23:57:57.379Z,101859.13
